createdAt,value
2023-01-04T00:00:40.955Z,91813.91
2023-01-04T00:02:02.747Z,91813.91
2023-01-04T00:03:24.690Z,91819.00
2023-01-04T00:04:46.484Z,91809.03
2023-01-04T00:06:10.631Z,91809.81
2023-01-04T00:07:32.348Z,91808.06
2023-01-04T00:08:55.195Z,91811.56
2023-01-04T00:10:18.800Z,91811.69
2023-01-04T00:11:40.845Z,91805.81
2023-01-04T00:13:02.752Z,91810.88
2023-01-04T00:14:24.619Z,91802.66
2023-01-04T00:15:46.730Z,91808.50
2023-01-04T00:17:08.549Z,91810.56
2023-01-04T00:18:31.531Z,91814.03
2023-01-04T00:19:53.981Z,91812.16
2023-01-04T00:21:18.356Z,91810.56
2023-01-04T00:22:40.213Z,91818.47
2023-01-04T00:24:02.707Z,91822.44
2023-01-04T00:25:24.813Z,91817.22
2023-01-04T00:26:46.829Z,91817.22
2023-01-04T00:28:08.749Z,91820.69
2023-01-04T00:29:30.856Z,91818.28
2023-01-04T00:30:52.485Z,91824.78
2023-01-04T00:32:14.411Z,91814.16
2023-01-04T00:33:36.744Z,91815.28
2023-01-04T00:34:58.437Z,91820.97
2023-01-04T00:36:20.189Z,91817.81
2023-01-04T00:37:45.680Z,91817.00
2023-01-04T00:39:15.397Z,91813.69
2023-01-04T00:40:37.166Z,91815.44
2023-01-04T00:42:05.301Z,91820.50
2023-01-04T00:43:27.796Z,91813.84
2023-01-04T00:44:49.454Z,91826.50
2023-01-04T00:46:11.723Z,91826.66
2023-01-04T00:47:33.436Z,91820.00
2023-01-04T00:49:00.157Z,91824.13
2023-01-04T00:50:22.263Z,91819.84
2023-01-04T00:51:44.114Z,91824.13
2023-01-04T00:53:05.990Z,91826.66
2023-01-04T00:54:28.485Z,91825.72
2023-01-04T00:55:50.496Z,91824.91
2023-01-04T00:57:12.279Z,91830.78
2023-01-04T00:58:34.045Z,91824.13
2023-01-04T00:59:55.893Z,91828.41
2023-01-04T01:01:17.872Z,91825.88
2023-01-04T01:02:39.986Z,91838.66
2023-01-04T01:04:04.475Z,91842.00
2023-01-04T01:05:26.764Z,91837.88
2023-01-04T01:06:49.246Z,91841.19
2023-01-04T01:08:26.999Z,91843.09
2023-01-04T01:09:48.601Z,91840.56
2023-01-04T01:11:11.161Z,91842.28
2023-01-04T01:12:32.750Z,91844.97
2023-01-04T01:13:54.896Z,91841.00
2023-01-04T01:15:16.859Z,91840.22
2023-01-04T01:16:54.503Z,91837.69
2023-01-04T01:18:17.895Z,91840.34
2023-01-04T01:19:39.869Z,91841.16
2023-01-04T01:21:05.903Z,91843.84
2023-01-04T01:22:27.837Z,91836.25
2023-01-04T01:23:50.765Z,91842.88
2023-01-04T01:25:12.767Z,91835.47
2023-01-04T01:26:34.862Z,91833.09
2023-01-04T01:27:56.741Z,91836.56
2023-01-04T01:29:18.724Z,91830.72
2023-01-04T01:30:42.683Z,91832.44
2023-01-04T01:32:04.603Z,91831.66
2023-01-04T01:33:27.589Z,91829.41
2023-01-04T01:34:49.392Z,91827.34
2023-01-04T01:36:13.241Z,91822.28
2023-01-04T01:37:34.838Z,91817.06
2023-01-04T01:38:57.092Z,91814.53
2023-01-04T01:40:19.176Z,91812.66
2023-01-04T01:41:40.806Z,91811.06
2023-01-04T01:43:02.654Z,91805.84
2023-01-04T01:44:43.137Z,91814.38
2023-01-04T01:46:04.967Z,91813.59
2023-01-04T01:47:43.406Z,91813.59
2023-01-04T01:49:27.379Z,91807.59
2023-01-04T01:50:56.345Z,91814.38
2023-01-04T01:52:38.969Z,91816.13
2023-01-04T01:54:10.754Z,91821.19
2023-01-04T01:55:33.774Z,91820.25
2023-01-04T01:57:00.157Z,91826.25
2023-01-04T01:58:41.492Z,91816.91
2023-01-04T02:00:12.560Z,91819.44
2023-01-04T02:01:37.029Z,91824.66
2023-01-04T02:03:35.283Z,91824.63
2023-01-04T02:04:58.931Z,91827.16
2023-01-04T02:06:29.682Z,91822.84
2023-01-04T02:07:52.020Z,91820.63
2023-01-04T02:09:14.548Z,91821.28
2023-01-04T02:10:36.362Z,91806.75
2023-01-04T02:11:59.296Z,91813.78
2023-01-04T02:13:47.894Z,91807.94
2023-01-04T02:15:11.046Z,91809.38
2023-01-04T02:16:50.687Z,91806.84
2023-01-04T02:18:18.135Z,91804.97
2023-01-04T02:20:11.247Z,91804.81
2023-01-04T02:21:58.868Z,91802.31
2023-01-04T02:23:26.317Z,91808.44
2023-01-04T02:25:29.452Z,91802.44
2023-01-04T02:26:57.338Z,91805.63
2023-01-04T02:28:34.386Z,91802.31
2023-01-04T02:30:37.905Z,91808.16
2023-01-04T02:32:09.028Z,91801.34
2023-01-04T02:34:09.624Z,91814.00
2023-01-04T02:35:31.316Z,91803.09
2023-01-04T02:37:01.200Z,91804.66
2023-01-04T02:38:52.658Z,91797.25
2023-01-04T02:40:37.255Z,91801.34
2023-01-04T02:42:21.072Z,91805.63
2023-01-04T02:44:16.121Z,91801.50
2023-01-04T02:45:47.402Z,91803.09
2023-01-04T02:47:44.217Z,91795.66
2023-01-04T02:49:24.475Z,91797.41
2023-01-04T02:50:57.183Z,91795.16
2023-01-04T02:52:20.373Z,91801.13
2023-01-04T02:53:42.543Z,91789.13
2023-01-04T02:55:07.182Z,91795.75
2023-01-04T02:57:02.666Z,91794.03
2023-01-04T02:58:32.821Z,91793.22
2023-01-04T03:00:29.132Z,91792.28
2023-01-04T03:02:18.453Z,91791.50
2023-01-04T03:04:40.743Z,91790.72
2023-01-04T03:06:26.258Z,91800.97
2023-01-04T03:08:01.836Z,91803.66
2023-01-04T03:09:29.374Z,91802.84
2023-01-04T03:10:59.434Z,91801.28
2023-01-04T03:12:32.843Z,91804.88
2023-01-04T03:14:02.440Z,91806.59
2023-01-04T03:15:48.715Z,91794.28
2023-01-04T03:17:14.774Z,91799.34
2023-01-04T03:18:44.558Z,91805.19
2023-01-04T03:20:10.122Z,91804.38
2023-01-04T03:21:33.700Z,91804.53
2023-01-04T03:23:27.034Z,91796.97
2023-01-04T03:25:07.184Z,91802.31
2023-01-04T03:26:55.826Z,91802.31
2023-01-04T03:28:38.757Z,91800.09
2023-01-04T03:30:28.507Z,91801.69
2023-01-04T03:32:13.897Z,91795.69
2023-01-04T03:33:54.607Z,91796.91
2023-01-04T03:35:28.129Z,91795.03
2023-01-04T03:37:11.680Z,91800.22
2023-01-04T03:39:12.659Z,91800.22
2023-01-04T03:40:54.715Z,91795.16
2023-01-04T03:42:49.798Z,91803.41
2023-01-04T03:44:53.823Z,91799.44
2023-01-04T03:46:33.940Z,91805.44
2023-01-04T03:48:18.979Z,91803.84
2023-01-04T03:49:57.466Z,91807.16
2023-01-04T03:51:25.764Z,91812.38
2023-01-04T03:52:50.401Z,91804.78
2023-01-04T03:54:27.213Z,91812.38
2023-01-04T03:55:51.098Z,91812.50
2023-01-04T03:57:14.811Z,91810.78
2023-01-04T03:58:37.614Z,91811.88
2023-01-04T04:00:13.425Z,91809.34
2023-01-04T04:01:37.042Z,91815.34
2023-01-04T04:03:07.450Z,91812.03
2023-01-04T04:04:47.981Z,91810.28
2023-01-04T04:06:28.672Z,91818.66
2023-01-04T04:08:08.805Z,91812.81
2023-01-04T04:09:30.399Z,91812.97
2023-01-04T04:10:52.850Z,91822.13
2023-01-04T04:12:14.708Z,91821.19
2023-01-04T04:13:36.826Z,91817.09
2023-01-04T04:14:58.699Z,91815.66
2023-01-04T04:16:20.829Z,91814.72
2023-01-04T04:17:42.452Z,91819.59
2023-01-04T04:19:08.634Z,91814.72
2023-01-04T04:20:30.996Z,91818.03
2023-01-04T04:21:52.822Z,91810.59
2023-01-04T04:23:14.441Z,91812.97
2023-01-04T04:24:36.978Z,91813.75
2023-01-04T04:25:58.811Z,91811.25
2023-01-04T04:27:20.801Z,91812.97
2023-01-04T04:28:43.250Z,91810.59
2023-01-04T04:30:05.578Z,91804.59
2023-01-04T04:31:27.439Z,91803.81
2023-01-04T04:32:49.149Z,91802.88
2023-01-04T04:34:11.666Z,91809.66
2023-01-04T04:35:33.613Z,91804.59
2023-01-04T04:36:55.620Z,91808.72
2023-01-04T04:38:17.585Z,91807.13
2023-01-04T04:39:39.450Z,91808.72
2023-01-04T04:41:24.899Z,91807.13
2023-01-04T04:42:47.046Z,91812.19
2023-01-04T04:44:17.884Z,91810.44
2023-01-04T04:45:39.927Z,91820.56
2023-01-04T04:47:02.303Z,91818.03
2023-01-04T04:48:24.214Z,91819.75
2023-01-04T04:49:46.330Z,91821.34
2023-01-04T04:51:08.316Z,91817.22
2023-01-04T04:52:30.349Z,91823.06
2023-01-04T04:53:52.172Z,91823.88
2023-01-04T04:55:14.086Z,91823.06
2023-01-04T04:56:39.294Z,91824.81
2023-01-04T04:58:01.082Z,91823.06
2023-01-04T04:59:23.007Z,91822.44
2023-01-04T05:00:44.741Z,91825.91
2023-01-04T05:02:06.829Z,91830.97
2023-01-04T05:03:29.367Z,91832.53
2023-01-04T05:04:51.096Z,91824.97
2023-01-04T05:06:13.769Z,91827.50
2023-01-04T05:07:35.711Z,91832.53
2023-01-04T05:08:57.559Z,91821.78
2023-01-04T05:10:19.319Z,91826.81
2023-01-04T05:12:00.340Z,91828.56
2023-01-04T05:13:22.534Z,91835.19
2023-01-04T05:14:44.052Z,91832.03
2023-01-04T05:16:07.701Z,91835.50
2023-01-04T05:17:29.720Z,91837.88
2023-01-04T05:18:51.557Z,91832.81
2023-01-04T05:20:13.432Z,91836.28
2023-01-04T05:21:35.203Z,91839.75
2023-01-04T05:22:57.023Z,91837.22
2023-01-04T05:24:18.904Z,91830.59
2023-01-04T05:25:41.054Z,91836.59
2023-01-04T05:27:02.952Z,91835.00
2023-01-04T05:28:25.230Z,91830.09
2023-01-04T05:30:05.606Z,91834.34
2023-01-04T05:31:27.393Z,91828.50
2023-01-04T05:32:49.678Z,91828.50
2023-01-04T05:34:11.228Z,91826.28
2023-01-04T05:35:33.179Z,91831.34
2023-01-04T05:36:55.055Z,91830.56
2023-01-04T05:38:17.320Z,91833.19
2023-01-04T05:39:39.301Z,91833.88
2023-01-04T05:41:01.084Z,91832.13
2023-01-04T05:42:25.735Z,91836.81
2023-01-04T05:43:47.353Z,91836.03
2023-01-04T05:45:09.992Z,91840.94
2023-01-04T05:46:31.877Z,91844.38
2023-01-04T05:47:54.683Z,91848.50
2023-01-04T05:49:16.396Z,91839.34
2023-01-04T05:50:38.019Z,91846.13
2023-01-04T05:51:59.839Z,91856.06
2023-01-04T05:53:21.846Z,91854.34
2023-01-04T05:54:43.904Z,91850.09
2023-01-04T05:56:06.176Z,91859.41
2023-01-04T05:57:28.038Z,91857.66
2023-01-04T05:58:50.026Z,91858.75
2023-01-04T06:00:13.457Z,91853.56
2023-01-04T06:01:35.058Z,91857.81
2023-01-04T06:02:57.321Z,91863.66
2023-01-04T06:04:20.273Z,91855.44
2023-01-04T06:05:42.120Z,91860.34
2023-01-04T06:07:03.732Z,91864.59
2023-01-04T06:08:25.625Z,91863.81
2023-01-04T06:09:47.696Z,91859.53
2023-01-04T06:11:09.564Z,91860.34
2023-01-04T06:12:31.453Z,91862.88
2023-01-04T06:13:53.241Z,91875.50
2023-01-04T06:15:15.603Z,91865.38
2023-01-04T06:16:37.677Z,91870.28
2023-01-04T06:17:59.521Z,91871.22
2023-01-04T06:19:21.169Z,91872.03
2023-01-04T06:20:43.881Z,91867.66
2023-01-04T06:22:06.832Z,91873.50
2023-01-04T06:23:29.263Z,91872.53
2023-01-04T06:24:51.114Z,91869.22
2023-01-04T06:26:13.301Z,91869.06
2023-01-04T06:27:34.982Z,91874.78
2023-01-04T06:28:56.960Z,91867.84
2023-01-04T06:30:18.965Z,91872.88
2023-01-04T06:31:41.079Z,91877.78
2023-01-04T06:33:02.714Z,91873.69
2023-01-04T06:34:30.574Z,91879.69
2023-01-04T06:35:57.160Z,91876.72
2023-01-04T06:37:19.170Z,91876.88
2023-01-04T06:38:40.905Z,91874.69
2023-01-04T06:40:03.477Z,91879.34
2023-01-04T06:41:25.572Z,91875.22
2023-01-04T06:42:47.653Z,91878.09
2023-01-04T06:44:09.511Z,91879.53
2023-01-04T06:45:32.350Z,91879.06
2023-01-04T06:46:54.272Z,91882.53
2023-01-04T06:48:18.300Z,91886.25
2023-01-04T06:49:40.625Z,91879.31
2023-01-04T06:51:02.632Z,91885.06
2023-01-04T06:52:24.426Z,91881.47
2023-01-04T06:53:46.525Z,91888.97
2023-01-04T06:55:11.826Z,91895.53
2023-01-04T06:56:33.723Z,91901.13
2023-01-04T06:57:59.522Z,91898.47
2023-01-04T06:59:21.936Z,91911.81
2023-01-04T07:00:43.805Z,91896.53
2023-01-04T07:02:06.160Z,91907.34
2023-01-04T07:03:28.321Z,91905.16
2023-01-04T07:04:50.065Z,91902.81
2023-01-04T07:06:12.114Z,91904.28
2023-01-04T07:07:35.469Z,91907.31
2023-01-04T07:08:57.191Z,91912.38
2023-01-04T07:10:19.132Z,91902.13
2023-01-04T07:11:40.667Z,91906.59
2023-01-04T07:13:02.988Z,91893.63
2023-01-04T07:14:24.978Z,91896.50
2023-01-04T07:15:47.049Z,91893.81
2023-01-04T07:17:08.964Z,91892.72
2023-01-04T07:18:31.031Z,91896.53
2023-01-04T07:19:53.248Z,91887.94
2023-01-04T07:21:14.964Z,91888.13
2023-01-04T07:22:36.591Z,91889.38
2023-01-04T07:23:58.472Z,91887.28
2023-01-04T07:25:20.686Z,91885.22
2023-01-04T07:26:42.391Z,91885.03
2023-01-04T07:28:04.520Z,91885.19
2023-01-04T07:29:26.369Z,91883.09
2023-01-04T07:30:48.220Z,91887.97
2023-01-04T07:32:13.993Z,91884.22
2023-01-04T07:33:36.129Z,91885.47
2023-01-04T07:34:58.428Z,91892.09
2023-01-04T07:36:20.314Z,91894.13
2023-01-04T07:37:43.978Z,91896.59
2023-01-04T07:39:05.815Z,91893.38
2023-01-04T07:40:28.312Z,91891.34
2023-01-04T07:41:50.867Z,91890.31
2023-01-04T07:43:15.494Z,91881.84
2023-01-04T07:44:37.567Z,91888.84
2023-01-04T07:45:59.301Z,91894.63
2023-01-04T07:47:20.947Z,91882.38
2023-01-04T07:48:42.644Z,91887.44
2023-01-04T07:50:06.150Z,91892.03
2023-01-04T07:51:29.580Z,91889.44
2023-01-04T07:52:51.574Z,91888.59
2023-01-04T07:54:14.288Z,91893.69
2023-01-04T07:55:36.064Z,91891.19
2023-01-04T07:56:58.058Z,91897.81
2023-01-04T07:58:19.731Z,91901.53
2023-01-04T07:59:41.838Z,91902.03
2023-01-04T08:01:08.768Z,91893.59
2023-01-04T08:02:31.074Z,91900.06
2023-01-04T08:03:53.895Z,91891.75
2023-01-04T08:05:15.900Z,91892.41
2023-01-04T08:06:38.498Z,91886.16
2023-01-04T08:08:01.127Z,91888.88
2023-01-04T08:09:23.124Z,91882.81
2023-01-04T08:10:44.808Z,91881.09
2023-01-04T08:12:06.767Z,91885.63
2023-01-04T08:13:28.801Z,91872.78
2023-01-04T08:14:50.816Z,91880.44
2023-01-04T08:16:22.869Z,91872.94
2023-01-04T08:17:44.563Z,91870.09
2023-01-04T08:19:11.766Z,91876.69
2023-01-04T08:20:33.569Z,91876.41
2023-01-04T08:21:55.471Z,91879.59
2023-01-04T08:23:17.113Z,91875.66
2023-01-04T08:24:39.329Z,91872.31
2023-01-04T08:26:09.926Z,91876.88
2023-01-04T08:27:32.285Z,91872.19
2023-01-04T08:28:54.860Z,91870.53
2023-01-04T08:30:16.878Z,91876.09
2023-01-04T08:31:39.378Z,91876.34
2023-01-04T08:33:01.590Z,91874.66
2023-01-04T08:34:23.499Z,91867.50
2023-01-04T08:35:45.156Z,91872.75
2023-01-04T08:37:07.131Z,91871.00
2023-01-04T08:38:58.905Z,91869.97
2023-01-04T08:40:10.998Z,91873.19
2023-01-04T08:43:32.591Z,91867.88
2023-01-04T08:44:59.990Z,91873.94
2023-01-04T08:46:22.181Z,91862.47
2023-01-04T08:47:44.116Z,91861.44
2023-01-04T08:49:05.974Z,91864.28
2023-01-04T08:50:27.950Z,91864.84
2023-01-04T08:51:50.088Z,91861.97
2023-01-04T08:53:12.944Z,91856.97
2023-01-04T08:54:34.732Z,91855.47
2023-01-04T08:55:58.727Z,91855.59
2023-01-04T08:57:20.529Z,91856.19
2023-01-04T08:58:42.456Z,91851.28
2023-01-04T09:00:05.201Z,91848.97
2023-01-04T09:01:27.388Z,91852.31
2023-01-04T09:02:49.514Z,91848.41
2023-01-04T09:04:11.537Z,91847.72
2023-01-04T09:05:33.802Z,91851.50
2023-01-04T09:06:55.605Z,91843.13
2023-01-04T09:08:16.993Z,91843.97
2023-01-04T09:09:38.836Z,91842.66
2023-01-04T09:11:10.029Z,91843.69
2023-01-04T09:12:31.716Z,91835.91
2023-01-04T09:14:06.741Z,91837.72
2023-01-04T09:15:29.408Z,91834.59
2023-01-04T09:16:51.417Z,91844.38
2023-01-04T09:18:31.637Z,91841.78
2023-01-04T09:19:54.088Z,91843.03
2023-01-04T09:21:18.948Z,91842.06
2023-01-04T09:22:40.825Z,91837.22
2023-01-04T09:24:03.068Z,91834.38
2023-01-04T09:25:24.885Z,91834.44
2023-01-04T09:26:47.594Z,91836.19
2023-01-04T09:28:09.706Z,91828.53
2023-01-04T09:29:31.461Z,91831.88
2023-01-04T09:30:53.414Z,91835.66
2023-01-04T09:32:16.974Z,91821.13
2023-01-04T09:34:12.200Z,91820.53
2023-01-04T09:35:21.026Z,91820.09
2023-01-04T09:36:43.051Z,91818.66
2023-01-04T09:38:04.980Z,91817.59
2023-01-04T09:39:30.555Z,91813.22
2023-01-04T09:41:06.827Z,91813.75
2023-01-04T09:42:38.297Z,91817.19
2023-01-04T09:44:10.266Z,91817.63
2023-01-04T09:45:32.035Z,91819.00
2023-01-04T09:47:05.543Z,91818.25
2023-01-04T09:48:31.668Z,91822.22
2023-01-04T09:50:03.018Z,91812.16
2023-01-04T09:51:31.893Z,91820.03
2023-01-04T09:53:18.682Z,91823.56
2023-01-04T09:54:56.220Z,91819.59
2023-01-04T09:56:39.766Z,91818.16
2023-01-04T09:58:06.492Z,91813.41
2023-01-04T09:59:34.201Z,91811.22
2023-01-04T10:01:04.924Z,91812.97
2023-01-04T10:02:49.093Z,91804.66
2023-01-04T10:04:28.195Z,91796.91
2023-01-04T10:05:51.310Z,91796.22
2023-01-04T10:07:29.807Z,91799.13
2023-01-04T10:08:51.781Z,91790.66
2023-01-04T10:10:19.333Z,91792.59
2023-01-04T10:12:05.843Z,91791.56
2023-01-04T10:13:53.748Z,91797.63
2023-01-04T10:15:27.394Z,91795.59
2023-01-04T10:17:57.607Z,91797.78
2023-01-04T10:21:39.109Z,91792.19
2023-01-04T10:23:00.769Z,91787.59
2023-01-04T10:24:31.471Z,91788.16
2023-01-04T10:25:56.933Z,91789.94
2023-01-04T10:27:57.168Z,91781.00
2023-01-04T10:29:54.017Z,91786.44
2023-01-04T10:31:39.308Z,91787.16
2023-01-04T10:33:03.366Z,91790.09
2023-01-04T10:34:42.037Z,91786.34
2023-01-04T10:36:06.488Z,91788.34
2023-01-04T10:37:36.433Z,91776.56
2023-01-04T10:39:02.995Z,91772.25
2023-01-04T10:40:28.181Z,91773.78
2023-01-04T10:42:17.328Z,91774.13
2023-01-04T10:44:11.233Z,91768.22
2023-01-04T10:45:51.735Z,91759.78
2023-01-04T10:47:21.786Z,91764.47
2023-01-04T10:49:06.748Z,91755.25
2023-01-04T10:50:31.256Z,91748.28
2023-01-04T10:52:22.660Z,91756.34
2023-01-04T10:53:52.981Z,91743.75
2023-01-04T10:55:21.352Z,91740.59
2023-01-04T10:56:56.397Z,91742.56
2023-01-04T10:58:47.224Z,91746.28
2023-01-04T11:00:21.827Z,91738.97
2023-01-04T11:01:55.774Z,91735.59
2023-01-04T11:03:40.239Z,91740.59
2023-01-04T11:05:21.147Z,91744.88
2023-01-04T11:06:53.786Z,91746.78
2023-01-04T11:08:35.299Z,91744.22
2023-01-04T11:10:06.775Z,91747.75
2023-01-04T11:11:44.616Z,91742.03
2023-01-04T11:13:06.438Z,91738.06
2023-01-04T11:14:33.311Z,91741.59
2023-01-04T11:16:02.881Z,91744.31
2023-01-04T11:17:25.780Z,91742.22
2023-01-04T11:18:49.428Z,91744.13
2023-01-04T11:20:11.812Z,91739.69
2023-01-04T11:21:43.322Z,91741.78
2023-01-04T11:23:19.585Z,91735.72
2023-01-04T11:24:54.521Z,91739.41
2023-01-04T11:26:33.001Z,91741.53
2023-01-04T11:28:26.724Z,91733.91
2023-01-04T11:30:21.741Z,91736.88
2023-01-04T11:31:49.667Z,91734.69
2023-01-04T11:33:21.626Z,91728.00
2023-01-04T11:34:56.982Z,91729.59
2023-01-04T11:36:42.402Z,91726.66
2023-01-04T11:38:25.122Z,91723.34
2023-01-04T11:39:46.927Z,91720.50
2023-01-04T11:41:16.854Z,91720.88
2023-01-04T11:42:40.840Z,91720.69
2023-01-04T11:44:05.542Z,91715.41
2023-01-04T11:45:28.667Z,91722.06
2023-01-04T11:47:08.294Z,91708.34
2023-01-04T11:48:47.125Z,91715.25
2023-01-04T11:50:48.188Z,91715.81
2023-01-04T11:52:31.209Z,91711.88
2023-01-04T11:54:02.055Z,91711.09
2023-01-04T11:55:31.215Z,91708.28
2023-01-04T11:57:11.800Z,91709.88
2023-01-04T11:58:33.925Z,91709.25
2023-01-04T12:00:10.917Z,91702.94
2023-01-04T12:01:38.339Z,91708.59
2023-01-04T12:03:18.060Z,91715.28
2023-01-04T12:04:39.703Z,91708.41
2023-01-04T12:06:01.456Z,91714.66
2023-01-04T12:07:35.009Z,91713.88
2023-01-04T12:08:56.946Z,91708.97
2023-01-04T12:10:26.953Z,91713.09
2023-01-04T12:11:56.141Z,91709.13
2023-01-04T12:13:18.377Z,91709.91
2023-01-04T12:14:47.883Z,91716.78
2023-01-04T12:16:28.103Z,91715.66
2023-01-04T12:18:04.586Z,91705.19
2023-01-04T12:19:26.481Z,91712.66
2023-01-04T12:20:48.156Z,91711.84
2023-01-04T12:22:38.117Z,91709.69
2023-01-04T12:23:59.940Z,91708.47
2023-01-04T12:25:36.791Z,91712.19
2023-01-04T12:26:59.246Z,91712.97
2023-01-04T12:28:42.772Z,91712.38
2023-01-04T12:30:08.212Z,91712.00
2023-01-04T12:31:31.769Z,91705.31
2023-01-04T12:32:53.737Z,91711.41
2023-01-04T12:34:26.109Z,91704.09
2023-01-04T12:36:04.911Z,91705.66
2023-01-04T12:37:45.945Z,91706.44
2023-01-04T12:39:16.393Z,91705.06
2023-01-04T12:40:47.847Z,91701.72
2023-01-04T12:42:11.638Z,91697.59
2023-01-04T12:43:44.734Z,91703.47
2023-01-04T12:45:15.366Z,91703.06
2023-01-04T12:47:00.982Z,91695.44
2023-01-04T12:48:47.148Z,91704.03
2023-01-04T12:50:19.555Z,91701.31
2023-01-04T12:51:52.038Z,91701.66
2023-01-04T12:53:50.989Z,91703.47
2023-01-04T12:55:31.661Z,91698.38
2023-01-04T12:57:24.033Z,91699.13
2023-01-04T12:59:25.274Z,91699.91
2023-01-04T13:00:53.542Z,91706.50
2023-01-04T13:02:18.960Z,91698.84
2023-01-04T13:03:48.675Z,91701.25
2023-01-04T13:07:25.620Z,91699.22
2023-01-04T13:08:50.181Z,91698.25
2023-01-04T13:10:30.788Z,91702.84
2023-01-04T13:12:07.612Z,91705.72
2023-01-04T13:13:32.294Z,91697.47
2023-01-04T13:15:02.004Z,91705.91
2023-01-04T13:16:34.422Z,91712.56
2023-01-04T13:17:57.910Z,91710.03
2023-01-04T13:19:26.594Z,91710.19
2023-01-04T13:20:48.550Z,91706.09
2023-01-04T13:22:17.569Z,91710.75
2023-01-04T13:23:41.084Z,91711.53
2023-01-04T13:25:04.817Z,91714.09
2023-01-04T13:26:35.852Z,91717.25
2023-01-04T13:28:00.286Z,91716.81
2023-01-04T13:29:25.409Z,91716.22
2023-01-04T13:30:47.638Z,91714.19
2023-01-04T13:32:23.496Z,91715.94
2023-01-04T13:33:47.469Z,91710.44
2023-01-04T13:35:14.789Z,91713.16
2023-01-04T13:36:36.781Z,91712.38
2023-01-04T13:38:00.704Z,91710.97
2023-01-04T13:39:24.022Z,91709.56
2023-01-04T13:40:49.604Z,91712.28
2023-01-04T13:42:28.548Z,91710.38
2023-01-04T13:44:12.110Z,91703.25
2023-01-04T13:46:14.346Z,91719.31
2023-01-04T13:47:39.262Z,91715.38
2023-01-04T13:49:03.305Z,91713.44
2023-01-04T13:50:40.223Z,91717.13
2023-01-04T13:52:47.270Z,91714.75
2023-01-04T13:54:17.188Z,91712.22
2023-01-04T13:55:39.616Z,91713.53
2023-01-04T13:57:09.444Z,91714.50
2023-01-04T13:58:32.434Z,91722.28
2023-01-04T13:59:54.330Z,91721.06
2023-01-04T14:01:24.977Z,91713.06
2023-01-04T14:02:47.521Z,91718.94
2023-01-04T14:04:21.743Z,91721.47
2023-01-04T14:05:52.408Z,91715.97
2023-01-04T14:07:22.933Z,91726.31
2023-01-04T14:08:51.445Z,91724.16
2023-01-04T14:10:18.763Z,91713.34
2023-01-04T14:12:05.662Z,91718.25
2023-01-04T14:13:29.154Z,91719.41
2023-01-04T14:15:00.452Z,91713.53
2023-01-04T14:16:22.312Z,91715.72
2023-01-04T14:17:48.820Z,91705.91
2023-01-04T14:19:48.228Z,91715.44
2023-01-04T14:21:18.320Z,91717.38
2023-01-04T14:22:40.003Z,91718.16
2023-01-04T14:24:02.364Z,91714.84
2023-01-04T14:25:48.575Z,91717.56
2023-01-04T14:27:36.976Z,91722.47
2023-01-04T14:28:59.101Z,91717.75
2023-01-04T14:30:20.619Z,91727.13
2023-01-04T14:31:44.808Z,91721.25
2023-01-04T14:33:19.796Z,91728.28
2023-01-04T14:34:41.731Z,91724.94
2023-01-04T14:36:39.410Z,91725.13
2023-01-04T14:38:11.119Z,91725.31
2023-01-04T14:39:34.304Z,91722.75
2023-01-04T14:40:56.452Z,91728.97
2023-01-04T14:42:27.256Z,91721.69
2023-01-04T14:43:54.914Z,91728.16
2023-01-04T14:45:16.686Z,91730.91
2023-01-04T14:46:39.424Z,91727.56
2023-01-04T14:48:01.409Z,91728.72
2023-01-04T14:49:26.795Z,91726.16
2023-01-04T14:50:49.498Z,91729.69
2023-01-04T14:52:21.328Z,91728.88
2023-01-04T14:53:43.644Z,91727.13
2023-01-04T14:55:05.994Z,91735.13
2023-01-04T14:56:27.549Z,91734.34
2023-01-04T14:57:49.551Z,91731.00
2023-01-04T14:59:11.714Z,91738.63
2023-01-04T15:00:33.264Z,91742.28
2023-01-04T15:01:56.905Z,91734.84
2023-01-04T15:03:18.802Z,91734.22
2023-01-04T15:04:40.952Z,91734.03
2023-01-04T15:06:02.619Z,91725.03
2023-01-04T15:07:36.185Z,91732.66
2023-01-04T15:08:57.616Z,91735.38
2023-01-04T15:10:26.089Z,91730.47
2023-01-04T15:11:47.810Z,91733.00
2023-01-04T15:13:09.758Z,91732.56
2023-01-04T15:14:31.876Z,91740.19
2023-01-04T15:15:54.000Z,91736.22
2023-01-04T15:17:15.948Z,91743.06
2023-01-04T15:18:37.798Z,91742.63
2023-01-04T15:19:59.654Z,91740.25
2023-01-04T15:21:21.708Z,91735.34
2023-01-04T15:22:44.193Z,91733.97
2023-01-04T15:24:06.326Z,91734.13
2023-01-04T15:25:29.752Z,91729.03
2023-01-04T15:26:51.573Z,91737.78
2023-01-04T15:28:14.987Z,91741.28
2023-01-04T15:29:36.965Z,91745.41
2023-01-04T15:30:59.707Z,91744.81
2023-01-04T15:32:21.480Z,91746.72
2023-01-04T15:33:43.289Z,91742.63
2023-01-04T15:35:05.466Z,91740.06
2023-01-04T15:36:27.356Z,91740.25
2023-01-04T15:37:49.695Z,91742.78
2023-01-04T15:39:14.216Z,91735.34
2023-01-04T15:40:36.390Z,91735.50
2023-01-04T15:42:30.088Z,91740.59
2023-01-04T15:43:51.670Z,91746.66
2023-01-04T15:45:13.589Z,91754.28
2023-01-04T15:46:35.661Z,91745.84
2023-01-04T15:48:03.031Z,91749.50
2023-01-04T15:49:25.248Z,91742.06
2023-01-04T15:50:46.958Z,91749.84
2023-01-04T15:52:08.990Z,91748.28
2023-01-04T15:53:31.063Z,91754.31
2023-01-04T15:54:53.078Z,91755.47
2023-01-04T15:56:15.128Z,91754.69
2023-01-04T15:57:41.797Z,91758.19
2023-01-04T15:59:05.627Z,91759.94
2023-01-04T16:00:27.954Z,91762.47
2023-01-04T16:01:49.929Z,91761.69
2023-01-04T16:03:11.840Z,91755.03
2023-01-04T16:04:35.121Z,91767.72
2023-01-04T16:05:57.052Z,91771.25
2023-01-04T16:07:18.914Z,91771.38
2023-01-04T16:08:42.079Z,91764.72
2023-01-04T16:10:04.718Z,91761.56
2023-01-04T16:11:26.865Z,91766.66
2023-01-04T16:12:54.715Z,91763.31
2023-01-04T16:14:18.267Z,91756.66
2023-01-04T16:15:39.717Z,91761.91
2023-01-04T16:17:01.633Z,91762.09
2023-01-04T16:18:26.346Z,91760.50
2023-01-04T16:19:52.242Z,91761.47
2023-01-04T16:21:15.284Z,91758.13
2023-01-04T16:22:37.483Z,91765.16
2023-01-04T16:24:09.338Z,91769.41
2023-01-04T16:25:38.699Z,91768.63
2023-01-04T16:27:00.255Z,91772.91
2023-01-04T16:28:22.060Z,91768.63
2023-01-04T16:29:43.969Z,91778.78
2023-01-04T16:31:07.776Z,91771.34
2023-01-04T16:32:29.770Z,91770.38
2023-01-04T16:33:54.854Z,91772.91
2023-01-04T16:35:16.937Z,91768.78
2023-01-04T16:36:39.014Z,91769.75
2023-01-04T16:38:00.759Z,91764.84
2023-01-04T16:39:28.324Z,91769.13
2023-01-04T16:41:05.471Z,91776.94
2023-01-04T16:42:27.165Z,91770.28
2023-01-04T16:43:51.966Z,91776.75
2023-01-04T16:45:13.801Z,91772.03
2023-01-04T16:46:37.525Z,91771.06
2023-01-04T16:48:01.069Z,91778.06
2023-01-04T16:49:22.709Z,91774.75
2023-01-04T16:50:44.202Z,91780.78
2023-01-04T16:52:10.457Z,91782.69
2023-01-04T16:53:32.527Z,91782.06
2023-01-04T16:54:54.475Z,91785.72
2023-01-04T16:56:18.509Z,91784.94
2023-01-04T16:57:40.503Z,91781.00
2023-01-04T16:59:02.366Z,91782.13
2023-01-04T17:00:24.306Z,91778.97
2023-01-04T17:01:57.360Z,91782.47
2023-01-04T17:03:19.555Z,91779.94
2023-01-04T17:04:41.496Z,91776.59
2023-01-04T17:06:12.463Z,91781.81
2023-01-04T17:07:34.652Z,91780.41
2023-01-04T17:08:57.990Z,91778.84
2023-01-04T17:10:25.555Z,91781.53
2023-01-04T17:13:42.426Z,91793.19
2023-01-04T17:16:46.077Z,91792.88
2023-01-04T17:18:09.568Z,91799.88
2023-01-04T17:19:31.491Z,91797.50
2023-01-04T17:21:24.161Z,91791.00